sensor_id;sensor_type;location;lat;lon;timestamp;P1;durP1;ratioP1;P2;durP2;ratioP2
68633;SDS011;55625;47.072;22.192;2022-09-29T00:01:29;8.60;;;2.47;;
68633;SDS011;55625;47.072;22.192;2022-09-29T00:03:55;9.70;;;2.25;;
68633;SDS011;55625;47.072;22.192;2022-09-29T00:06:21;9.03;;;2.20;;
68633;SDS011;55625;47.072;22.192;2022-09-29T00:08:47;7.25;;;2.58;;
68633;SDS011;55625;47.072;22.192;2022-09-29T00:11:14;7.53;;;2.30;;
68633;SDS011;55625;47.072;22.192;2022-09-29T00:13:43;8.13;;;2.30;;
68633;SDS011;55625;47.072;22.192;2022-09-29T00:16:10;8.97;;;3.03;;
68633;SDS011;55625;47.072;22.192;2022-09-29T00:18:36;9.43;;;2.03;;
68633;SDS011;55625;47.072;22.192;2022-09-29T00:21:07;8.32;;;2.28;;
68633;SDS011;55625;47.072;22.192;2022-09-29T00:23:40;6.82;;;1.95;;
68633;SDS011;55625;47.072;22.192;2022-09-29T00:26:08;11.18;;;2.65;;
68633;SDS011;55625;47.072;22.192;2022-09-29T00:28:47;7.03;;;2.07;;
68633;SDS011;55625;47.072;22.192;2022-09-29T00:31:23;11.43;;;3.00;;
68633;SDS011;55625;47.072;22.192;2022-09-29T00:33:51;7.22;;;2.22;;
68633;SDS011;55625;47.072;22.192;2022-09-29T00:36:18;5.88;;;2.00;;
68633;SDS011;55625;47.072;22.192;2022-09-29T00:38:46;7.00;;;2.10;;
68633;SDS011;55625;47.072;22.192;2022-09-29T00:41:14;9.53;;;2.03;;
68633;SDS011;55625;47.072;22.192;2022-09-29T00:49:23;6.72;;;2.50;;
68633;SDS011;55625;47.072;22.192;2022-09-29T00:51:59;8.95;;;1.85;;
68633;SDS011;55625;47.072;22.192;2022-09-29T00:54:36;11.83;;;2.73;;
68633;SDS011;55625;47.072;22.192;2022-09-29T00:57:21;8.27;;;2.33;;
68633;SDS011;55625;47.072;22.192;2022-09-29T01:02:49;6.78;;;2.25;;
68633;SDS011;55625;47.072;22.192;2022-09-29T01:05:26;7.63;;;2.42;;
68633;SDS011;55625;47.072;22.192;2022-09-29T01:08:02;9.13;;;2.33;;
68633;SDS011;55625;47.072;22.192;2022-09-29T01:10:51;13.73;;;3.20;;
68633;SDS011;55625;47.072;22.192;2022-09-29T01:13:18;8.07;;;2.65;;
68633;SDS011;55625;47.072;22.192;2022-09-29T01:15:44;7.43;;;2.50;;
68633;SDS011;55625;47.072;22.192;2022-09-29T01:18:10;6.00;;;1.80;;
68633;SDS011;55625;47.072;22.192;2022-09-29T01:20:40;6.93;;;2.37;;
68633;SDS011;55625;47.072;22.192;2022-09-29T01:38:39;10.95;;;2.80;;
68633;SDS011;55625;47.072;22.192;2022-09-29T01:43:58;8.07;;;2.60;;
68633;SDS011;55625;47.072;22.192;2022-09-29T01:47:06;9.05;;;2.42;;
68633;SDS011;55625;47.072;22.192;2022-09-29T01:49:33;5.07;;;1.60;;
68633;SDS011;55625;47.072;22.192;2022-09-29T01:52:06;8.30;;;2.00;;
68633;SDS011;55625;47.072;22.192;2022-09-29T01:54:53;8.07;;;1.98;;
68633;SDS011;55625;47.072;22.192;2022-09-29T01:57:56;6.93;;;2.65;;
68633;SDS011;55625;47.072;22.192;2022-09-29T02:00:30;9.40;;;2.00;;
68633;SDS011;55625;47.072;22.192;2022-09-29T02:11:10;8.80;;;2.13;;
68633;SDS011;55625;47.072;22.192;2022-09-29T02:16:34;9.73;;;2.47;;
68633;SDS011;55625;47.072;22.192;2022-09-29T02:19:32;6.82;;;2.35;;
68633;SDS011;55625;47.072;22.192;2022-09-29T02:22:02;6.35;;;2.67;;
68633;SDS011;55625;47.072;22.192;2022-09-29T02:24:28;9.70;;;2.53;;
68633;SDS011;55625;47.072;22.192;2022-09-29T02:26:55;11.75;;;2.00;;
68633;SDS011;55625;47.072;22.192;2022-09-29T02:29:21;7.10;;;2.80;;
68633;SDS011;55625;47.072;22.192;2022-09-29T02:31:47;5.05;;;2.28;;
68633;SDS011;55625;47.072;22.192;2022-09-29T02:34:15;6.43;;;2.33;;
68633;SDS011;55625;47.072;22.192;2022-09-29T02:42:20;7.23;;;2.13;;
68633;SDS011;55625;47.072;22.192;2022-09-29T02:51:22;5.85;;;2.20;;
68633;SDS011;55625;47.072;22.192;2022-09-29T02:59:09;7.80;;;2.50;;
68633;SDS011;55625;47.072;22.192;2022-09-29T03:01:50;5.60;;;2.20;;
68633;SDS011;55625;47.072;22.192;2022-09-29T03:04:21;5.95;;;2.10;;
68633;SDS011;55625;47.072;22.192;2022-09-29T03:06:50;4.80;;;1.90;;
68633;SDS011;55625;47.072;22.192;2022-09-29T03:09:17;11.37;;;2.60;;
68633;SDS011;55625;47.072;22.192;2022-09-29T03:11:43;6.45;;;2.20;;
68633;SDS011;55625;47.072;22.192;2022-09-29T03:14:09;7.32;;;2.35;;
68633;SDS011;55625;47.072;22.192;2022-09-29T03:16:35;5.03;;;1.77;;
68633;SDS011;55625;47.072;22.192;2022-09-29T03:19:01;6.32;;;2.10;;
68633;SDS011;55625;47.072;22.192;2022-09-29T03:21:29;6.60;;;2.33;;
68633;SDS011;55625;47.072;22.192;2022-09-29T03:23:56;4.68;;;1.67;;
68633;SDS011;55625;47.072;22.192;2022-09-29T03:26:22;7.60;;;1.73;;
68633;SDS011;55625;47.072;22.192;2022-09-29T03:28:48;5.63;;;1.80;;
68633;SDS011;55625;47.072;22.192;2022-09-29T03:31:15;4.43;;;1.77;;
68633;SDS011;55625;47.072;22.192;2022-09-29T03:33:41;6.22;;;1.83;;
68633;SDS011;55625;47.072;22.192;2022-09-29T03:36:07;3.97;;;1.30;;
68633;SDS011;55625;47.072;22.192;2022-09-29T03:38:33;5.43;;;1.83;;
68633;SDS011;55625;47.072;22.192;2022-09-29T03:40:59;6.22;;;1.67;;
68633;SDS011;55625;47.072;22.192;2022-09-29T03:43:25;7.20;;;1.83;;
68633;SDS011;55625;47.072;22.192;2022-09-29T03:45:52;5.03;;;1.08;;
68633;SDS011;55625;47.072;22.192;2022-09-29T03:48:20;4.20;;;1.80;;
68633;SDS011;55625;47.072;22.192;2022-09-29T03:50:47;3.88;;;1.20;;
68633;SDS011;55625;47.072;22.192;2022-09-29T03:53:14;4.97;;;1.60;;
68633;SDS011;55625;47.072;22.192;2022-09-29T03:55:45;3.70;;;0.60;;
68633;SDS011;55625;47.072;22.192;2022-09-29T03:58:12;6.25;;;1.40;;
68633;SDS011;55625;47.072;22.192;2022-09-29T04:00:38;6.18;;;1.63;;
68633;SDS011;55625;47.072;22.192;2022-09-29T04:03:04;3.90;;;1.40;;
68633;SDS011;55625;47.072;22.192;2022-09-29T04:05:31;5.30;;;1.65;;
68633;SDS011;55625;47.072;22.192;2022-09-29T04:08:03;7.43;;;1.97;;
68633;SDS011;55625;47.072;22.192;2022-09-29T04:10:32;5.05;;;2.13;;
68633;SDS011;55625;47.072;22.192;2022-09-29T04:13:02;6.25;;;2.88;;
68633;SDS011;55625;47.072;22.192;2022-09-29T04:15:29;5.15;;;2.20;;
68633;SDS011;55625;47.072;22.192;2022-09-29T04:17:56;4.75;;;1.65;;
68633;SDS011;55625;47.072;22.192;2022-09-29T04:20:21;4.30;;;1.70;;
68633;SDS011;55625;47.072;22.192;2022-09-29T04:22:48;5.38;;;2.17;;
68633;SDS011;55625;47.072;22.192;2022-09-29T04:25:14;7.47;;;1.75;;
68633;SDS011;55625;47.072;22.192;2022-09-29T04:27:39;7.57;;;1.77;;
68633;SDS011;55625;47.072;22.192;2022-09-29T04:30:05;4.38;;;1.55;;
68633;SDS011;55625;47.072;22.192;2022-09-29T04:32:33;7.53;;;1.65;;
68633;SDS011;55625;47.072;22.192;2022-09-29T04:34:59;5.70;;;1.87;;
68633;SDS011;55625;47.072;22.192;2022-09-29T04:37:25;4.70;;;1.70;;
68633;SDS011;55625;47.072;22.192;2022-09-29T04:39:50;10.10;;;4.03;;
68633;SDS011;55625;47.072;22.192;2022-09-29T04:42:18;9.82;;;2.97;;
68633;SDS011;55625;47.072;22.192;2022-09-29T04:44:45;10.90;;;3.33;;
68633;SDS011;55625;47.072;22.192;2022-09-29T04:47:11;5.77;;;2.20;;
68633;SDS011;55625;47.072;22.192;2022-09-29T04:49:37;6.53;;;1.63;;
68633;SDS011;55625;47.072;22.192;2022-09-29T04:52:03;6.82;;;2.08;;
68633;SDS011;55625;47.072;22.192;2022-09-29T04:54:30;4.32;;;1.30;;
68633;SDS011;55625;47.072;22.192;2022-09-29T04:56:57;4.38;;;1.27;;
68633;SDS011;55625;47.072;22.192;2022-09-29T04:59:23;7.40;;;1.77;;
68633;SDS011;55625;47.072;22.192;2022-09-29T05:01:49;5.82;;;1.27;;
68633;SDS011;55625;47.072;22.192;2022-09-29T05:04:15;3.65;;;1.30;;
68633;SDS011;55625;47.072;22.192;2022-09-29T05:06:41;7.00;;;2.13;;
68633;SDS011;55625;47.072;22.192;2022-09-29T05:09:07;10.88;;;2.58;;
68633;SDS011;55625;47.072;22.192;2022-09-29T05:11:32;8.77;;;2.03;;
68633;SDS011;55625;47.072;22.192;2022-09-29T05:13:58;4.90;;;1.03;;
68633;SDS011;55625;47.072;22.192;2022-09-29T05:16:25;5.82;;;1.60;;
68633;SDS011;55625;47.072;22.192;2022-09-29T05:18:51;5.53;;;1.30;;
68633;SDS011;55625;47.072;22.192;2022-09-29T05:21:17;4.95;;;0.88;;
68633;SDS011;55625;47.072;22.192;2022-09-29T05:23:43;3.83;;;1.43;;
68633;SDS011;55625;47.072;22.192;2022-09-29T05:26:09;5.90;;;1.33;;
68633;SDS011;55625;47.072;22.192;2022-09-29T05:28:37;4.18;;;1.25;;
68633;SDS011;55625;47.072;22.192;2022-09-29T05:31:08;5.40;;;1.95;;
68633;SDS011;55625;47.072;22.192;2022-09-29T05:33:35;5.45;;;1.40;;
68633;SDS011;55625;47.072;22.192;2022-09-29T05:36:08;3.53;;;1.10;;
68633;SDS011;55625;47.072;22.192;2022-09-29T05:38:37;5.90;;;1.08;;
68633;SDS011;55625;47.072;22.192;2022-09-29T05:41:03;4.93;;;1.38;;
68633;SDS011;55625;47.072;22.192;2022-09-29T05:43:32;5.05;;;1.27;;
68633;SDS011;55625;47.072;22.192;2022-09-29T05:46:01;3.33;;;1.17;;
68633;SDS011;55625;47.072;22.192;2022-09-29T05:48:29;5.78;;;1.27;;
68633;SDS011;55625;47.072;22.192;2022-09-29T05:50:55;5.95;;;2.75;;
68633;SDS011;55625;47.072;22.192;2022-09-29T05:53:22;4.88;;;1.48;;
68633;SDS011;55625;47.072;22.192;2022-09-29T05:55:48;4.82;;;2.28;;
68633;SDS011;55625;47.072;22.192;2022-09-29T05:58:14;3.80;;;1.57;;
68633;SDS011;55625;47.072;22.192;2022-09-29T06:00:41;7.93;;;1.88;;
68633;SDS011;55625;47.072;22.192;2022-09-29T06:03:07;7.72;;;2.85;;
68633;SDS011;55625;47.072;22.192;2022-09-29T06:05:32;7.95;;;2.15;;
68633;SDS011;55625;47.072;22.192;2022-09-29T06:08:03;4.53;;;1.65;;
68633;SDS011;55625;47.072;22.192;2022-09-29T06:10:29;9.50;;;2.37;;
68633;SDS011;55625;47.072;22.192;2022-09-29T06:12:56;7.53;;;2.15;;
68633;SDS011;55625;47.072;22.192;2022-09-29T06:15:22;5.70;;;1.95;;
68633;SDS011;55625;47.072;22.192;2022-09-29T06:17:58;9.82;;;3.13;;
68633;SDS011;55625;47.072;22.192;2022-09-29T06:20:25;5.55;;;2.58;;
68633;SDS011;55625;47.072;22.192;2022-09-29T06:22:54;6.87;;;2.67;;
68633;SDS011;55625;47.072;22.192;2022-09-29T06:25:21;8.02;;;2.85;;
68633;SDS011;55625;47.072;22.192;2022-09-29T06:27:47;7.93;;;2.78;;
68633;SDS011;55625;47.072;22.192;2022-09-29T06:30:13;5.72;;;2.03;;
68633;SDS011;55625;47.072;22.192;2022-09-29T06:32:39;5.85;;;2.25;;
68633;SDS011;55625;47.072;22.192;2022-09-29T06:35:05;9.10;;;2.77;;
68633;SDS011;55625;47.072;22.192;2022-09-29T06:37:51;9.25;;;3.20;;
68633;SDS011;55625;47.072;22.192;2022-09-29T06:40:20;9.95;;;3.17;;
68633;SDS011;55625;47.072;22.192;2022-09-29T06:42:47;8.68;;;2.75;;
68633;SDS011;55625;47.072;22.192;2022-09-29T06:45:14;8.98;;;3.75;;
68633;SDS011;55625;47.072;22.192;2022-09-29T06:47:40;13.53;;;5.10;;
68633;SDS011;55625;47.072;22.192;2022-09-29T06:50:06;15.07;;;5.80;;
68633;SDS011;55625;47.072;22.192;2022-09-29T06:52:33;14.02;;;4.55;;
68633;SDS011;55625;47.072;22.192;2022-09-29T06:54:59;10.23;;;3.80;;
68633;SDS011;55625;47.072;22.192;2022-09-29T06:57:25;11.57;;;3.63;;
68633;SDS011;55625;47.072;22.192;2022-09-29T06:59:51;12.15;;;4.20;;
68633;SDS011;55625;47.072;22.192;2022-09-29T07:02:17;8.98;;;3.50;;
68633;SDS011;55625;47.072;22.192;2022-09-29T07:04:42;13.93;;;3.83;;
68633;SDS011;55625;47.072;22.192;2022-09-29T07:07:08;12.82;;;4.65;;
68633;SDS011;55625;47.072;22.192;2022-09-29T07:09:34;14.10;;;5.37;;
68633;SDS011;55625;47.072;22.192;2022-09-29T07:12:00;11.80;;;4.30;;
68633;SDS011;55625;47.072;22.192;2022-09-29T07:14:26;13.30;;;4.00;;
68633;SDS011;55625;47.072;22.192;2022-09-29T07:16:52;7.40;;;2.87;;
68633;SDS011;55625;47.072;22.192;2022-09-29T07:19:17;7.38;;;2.45;;
68633;SDS011;55625;47.072;22.192;2022-09-29T07:21:44;10.63;;;2.47;;
68633;SDS011;55625;47.072;22.192;2022-09-29T07:24:11;5.72;;;2.60;;
68633;SDS011;55625;47.072;22.192;2022-09-29T07:26:37;6.47;;;2.50;;
68633;SDS011;55625;47.072;22.192;2022-09-29T07:29:03;4.93;;;1.95;;
68633;SDS011;55625;47.072;22.192;2022-09-29T07:31:29;5.47;;;2.10;;
68633;SDS011;55625;47.072;22.192;2022-09-29T07:33:55;8.47;;;1.97;;
68633;SDS011;55625;47.072;22.192;2022-09-29T07:36:21;9.45;;;1.67;;
68633;SDS011;55625;47.072;22.192;2022-09-29T07:38:48;6.53;;;2.65;;
68633;SDS011;55625;47.072;22.192;2022-09-29T07:41:16;4.78;;;1.77;;
68633;SDS011;55625;47.072;22.192;2022-09-29T07:43:45;7.68;;;2.30;;
68633;SDS011;55625;47.072;22.192;2022-09-29T07:46:11;6.07;;;1.43;;
68633;SDS011;55625;47.072;22.192;2022-09-29T07:48:38;4.47;;;1.70;;
68633;SDS011;55625;47.072;22.192;2022-09-29T07:51:05;4.97;;;1.80;;
68633;SDS011;55625;47.072;22.192;2022-09-29T07:53:37;8.88;;;2.58;;
68633;SDS011;55625;47.072;22.192;2022-09-29T07:56:05;7.53;;;2.60;;
68633;SDS011;55625;47.072;22.192;2022-09-29T07:58:41;5.83;;;2.20;;
68633;SDS011;55625;47.072;22.192;2022-09-29T08:01:08;5.88;;;1.33;;
68633;SDS011;55625;47.072;22.192;2022-09-29T08:03:40;3.78;;;1.55;;
68633;SDS011;55625;47.072;22.192;2022-09-29T08:06:11;6.13;;;1.30;;
68633;SDS011;55625;47.072;22.192;2022-09-29T08:08:38;4.53;;;1.35;;
68633;SDS011;55625;47.072;22.192;2022-09-29T08:11:06;4.97;;;1.20;;
68633;SDS011;55625;47.072;22.192;2022-09-29T08:13:35;5.20;;;1.35;;
68633;SDS011;55625;47.072;22.192;2022-09-29T08:16:03;4.22;;;1.50;;
68633;SDS011;55625;47.072;22.192;2022-09-29T08:18:32;4.22;;;1.90;;
68633;SDS011;55625;47.072;22.192;2022-09-29T08:20:59;6.22;;;1.35;;
68633;SDS011;55625;47.072;22.192;2022-09-29T08:23:25;4.90;;;1.00;;
68633;SDS011;55625;47.072;22.192;2022-09-29T08:25:58;5.10;;;1.58;;
68633;SDS011;55625;47.072;22.192;2022-09-29T08:28:29;4.03;;;1.17;;
68633;SDS011;55625;47.072;22.192;2022-09-29T08:31:08;4.32;;;1.73;;
68633;SDS011;55625;47.072;22.192;2022-09-29T08:33:49;4.43;;;1.63;;
68633;SDS011;55625;47.072;22.192;2022-09-29T08:36:19;8.80;;;1.77;;
68633;SDS011;55625;47.072;22.192;2022-09-29T08:38:49;8.55;;;1.70;;
68633;SDS011;55625;47.072;22.192;2022-09-29T08:43:53;4.90;;;1.00;;
68633;SDS011;55625;47.072;22.192;2022-09-29T08:46:49;5.43;;;1.65;;
68633;SDS011;55625;47.072;22.192;2022-09-29T08:49:44;8.43;;;2.87;;
68633;SDS011;55625;47.072;22.192;2022-09-29T08:55:12;17.80;;;5.90;;
68633;SDS011;55625;47.072;22.192;2022-09-29T08:57:52;14.05;;;4.85;;
68633;SDS011;55625;47.072;22.192;2022-09-29T09:00:25;8.77;;;2.97;;
68633;SDS011;55625;47.072;22.192;2022-09-29T09:08:44;25.52;;;10.73;;
68633;SDS011;55625;47.072;22.192;2022-09-29T09:23:13;6.70;;;2.55;;
68633;SDS011;55625;47.072;22.192;2022-09-29T09:26:02;5.53;;;2.05;;
68633;SDS011;55625;47.072;22.192;2022-09-29T09:28:40;7.20;;;2.30;;
68633;SDS011;55625;47.072;22.192;2022-09-29T09:31:35;9.53;;;1.63;;
68633;SDS011;55625;47.072;22.192;2022-09-29T09:34:21;4.30;;;1.90;;
68633;SDS011;55625;47.072;22.192;2022-09-29T09:36:59;7.43;;;2.33;;
68633;SDS011;55625;47.072;22.192;2022-09-29T09:39:44;9.02;;;2.88;;
68633;SDS011;55625;47.072;22.192;2022-09-29T09:42:38;3.90;;;1.35;;
68633;SDS011;55625;47.072;22.192;2022-09-29T09:45:13;7.33;;;1.43;;
68633;SDS011;55625;47.072;22.192;2022-09-29T09:48:21;6.70;;;1.88;;
68633;SDS011;55625;47.072;22.192;2022-09-29T09:51:23;6.72;;;1.65;;
68633;SDS011;55625;47.072;22.192;2022-09-29T09:54:03;8.75;;;2.05;;
68633;SDS011;55625;47.072;22.192;2022-09-29T09:56:49;4.05;;;1.55;;
68633;SDS011;55625;47.072;22.192;2022-09-29T10:02:48;5.30;;;1.67;;
68633;SDS011;55625;47.072;22.192;2022-09-29T10:05:21;7.88;;;3.63;;
68633;SDS011;55625;47.072;22.192;2022-09-29T10:08:02;7.50;;;2.92;;
68633;SDS011;55625;47.072;22.192;2022-09-29T10:10:31;4.90;;;2.08;;
68633;SDS011;55625;47.072;22.192;2022-09-29T10:13:00;5.43;;;2.07;;
68633;SDS011;55625;47.072;22.192;2022-09-29T10:15:39;5.22;;;2.15;;
68633;SDS011;55625;47.072;22.192;2022-09-29T10:18:22;6.45;;;1.60;;
68633;SDS011;55625;47.072;22.192;2022-09-29T10:21:21;5.15;;;2.20;;
68633;SDS011;55625;47.072;22.192;2022-09-29T10:23:53;6.15;;;1.92;;
68633;SDS011;55625;47.072;22.192;2022-09-29T10:32:02;15.32;;;2.08;;
68633;SDS011;55625;47.072;22.192;2022-09-29T10:34:41;7.03;;;2.05;;
68633;SDS011;55625;47.072;22.192;2022-09-29T10:39:48;6.87;;;1.47;;
68633;SDS011;55625;47.072;22.192;2022-09-29T10:42:30;9.13;;;3.10;;
68633;SDS011;55625;47.072;22.192;2022-09-29T10:45:00;14.50;;;2.20;;
68633;SDS011;55625;47.072;22.192;2022-09-29T10:47:36;6.25;;;2.05;;
68633;SDS011;55625;47.072;22.192;2022-09-29T10:50:06;6.95;;;1.88;;
68633;SDS011;55625;47.072;22.192;2022-09-29T10:52:57;6.93;;;1.57;;
68633;SDS011;55625;47.072;22.192;2022-09-29T10:55:32;5.68;;;1.85;;
68633;SDS011;55625;47.072;22.192;2022-09-29T11:01:06;3.28;;;1.13;;
68633;SDS011;55625;47.072;22.192;2022-09-29T11:03:36;6.60;;;2.17;;
68633;SDS011;55625;47.072;22.192;2022-09-29T11:06:30;4.17;;;1.50;;
68633;SDS011;55625;47.072;22.192;2022-09-29T11:09:06;6.60;;;1.35;;
68633;SDS011;55625;47.072;22.192;2022-09-29T11:11:41;6.20;;;1.75;;
68633;SDS011;55625;47.072;22.192;2022-09-29T11:17:03;5.80;;;1.75;;
68633;SDS011;55625;47.072;22.192;2022-09-29T11:19:52;5.40;;;1.60;;
68633;SDS011;55625;47.072;22.192;2022-09-29T11:36:07;5.03;;;1.50;;
68633;SDS011;55625;47.072;22.192;2022-09-29T11:38:47;5.85;;;1.63;;
68633;SDS011;55625;47.072;22.192;2022-09-29T11:45:15;3.47;;;0.73;;
68633;SDS011;55625;47.072;22.192;2022-09-29T11:50:47;9.07;;;1.75;;
68633;SDS011;55625;47.072;22.192;2022-09-29T12:06:05;3.97;;;1.40;;
68633;SDS011;55625;47.072;22.192;2022-09-29T12:09:03;5.78;;;1.52;;
68633;SDS011;55625;47.072;22.192;2022-09-29T12:12:23;4.32;;;1.92;;
68633;SDS011;55625;47.072;22.192;2022-09-29T12:15:15;3.38;;;1.73;;
68633;SDS011;55625;47.072;22.192;2022-09-29T12:18:07;6.10;;;1.83;;
68633;SDS011;55625;47.072;22.192;2022-09-29T12:20:45;3.05;;;1.08;;
68633;SDS011;55625;47.072;22.192;2022-09-29T12:23:16;5.93;;;1.42;;
68633;SDS011;55625;47.072;22.192;2022-09-29T12:25:54;5.28;;;0.90;;
68633;SDS011;55625;47.072;22.192;2022-09-29T12:28:53;6.22;;;0.98;;
68633;SDS011;55625;47.072;22.192;2022-09-29T12:31:42;3.43;;;1.33;;
68633;SDS011;55625;47.072;22.192;2022-09-29T12:37:14;4.22;;;1.33;;
68633;SDS011;55625;47.072;22.192;2022-09-29T12:40:09;5.35;;;1.95;;
68633;SDS011;55625;47.072;22.192;2022-09-29T12:51:29;4.25;;;1.00;;
68633;SDS011;55625;47.072;22.192;2022-09-29T13:14:22;2.93;;;1.10;;
68633;SDS011;55625;47.072;22.192;2022-09-29T13:19:53;6.68;;;1.48;;
68633;SDS011;55625;47.072;22.192;2022-09-29T13:28:56;3.07;;;1.50;;
68633;SDS011;55625;47.072;22.192;2022-09-29T13:31:27;8.93;;;2.67;;
68633;SDS011;55625;47.072;22.192;2022-09-29T13:33:59;3.97;;;1.80;;
68633;SDS011;55625;47.072;22.192;2022-09-29T13:36:29;3.85;;;1.30;;
68633;SDS011;55625;47.072;22.192;2022-09-29T13:39:00;4.10;;;1.65;;
68633;SDS011;55625;47.072;22.192;2022-09-29T13:41:33;4.93;;;1.10;;
68633;SDS011;55625;47.072;22.192;2022-09-29T13:44:04;7.65;;;1.92;;
68633;SDS011;55625;47.072;22.192;2022-09-29T13:46:43;6.40;;;2.28;;
68633;SDS011;55625;47.072;22.192;2022-09-29T13:54:45;11.00;;;2.40;;
68633;SDS011;55625;47.072;22.192;2022-09-29T13:59:37;6.00;;;2.15;;
68633;SDS011;55625;47.072;22.192;2022-09-29T14:05:20;7.35;;;1.92;;
68633;SDS011;55625;47.072;22.192;2022-09-29T14:08:34;12.75;;;2.42;;
68633;SDS011;55625;47.072;22.192;2022-09-29T14:10:42;11.40;;;1.88;;
68633;SDS011;55625;47.072;22.192;2022-09-29T14:13:30;6.28;;;2.28;;
68633;SDS011;55625;47.072;22.192;2022-09-29T14:19:06;5.18;;;1.92;;
68633;SDS011;55625;47.072;22.192;2022-09-29T14:27:17;5.45;;;3.00;;
68633;SDS011;55625;47.072;22.192;2022-09-29T14:32:43;3.83;;;1.67;;
68633;SDS011;55625;47.072;22.192;2022-09-29T14:35:34;6.60;;;2.25;;
68633;SDS011;55625;47.072;22.192;2022-09-29T14:41:14;7.00;;;2.45;;
68633;SDS011;55625;47.072;22.192;2022-09-29T14:43:59;9.73;;;3.23;;
68633;SDS011;55625;47.072;22.192;2022-09-29T14:50:24;8.52;;;2.33;;
68633;SDS011;55625;47.072;22.192;2022-09-29T15:04:40;6.88;;;2.67;;
68633;SDS011;55625;47.072;22.192;2022-09-29T15:07:13;8.07;;;1.80;;
68633;SDS011;55625;47.072;22.192;2022-09-29T15:09:46;6.38;;;1.83;;
68633;SDS011;55625;47.072;22.192;2022-09-29T15:14:55;4.32;;;2.20;;
68633;SDS011;55625;47.072;22.192;2022-09-29T15:17:44;3.70;;;1.77;;
68633;SDS011;55625;47.072;22.192;2022-09-29T15:23:45;7.90;;;4.65;;
68633;SDS011;55625;47.072;22.192;2022-09-29T15:26:15;14.07;;;7.47;;
68633;SDS011;55625;47.072;22.192;2022-09-29T15:28:43;14.13;;;7.88;;
68633;SDS011;55625;47.072;22.192;2022-09-29T15:31:11;14.65;;;8.80;;
68633;SDS011;55625;47.072;22.192;2022-09-29T15:33:42;14.13;;;6.78;;
68633;SDS011;55625;47.072;22.192;2022-09-29T15:36:18;16.23;;;6.78;;
68633;SDS011;55625;47.072;22.192;2022-09-29T15:39:00;10.60;;;5.97;;
68633;SDS011;55625;47.072;22.192;2022-09-29T15:41:31;11.52;;;6.60;;
68633;SDS011;55625;47.072;22.192;2022-09-29T15:44:20;12.98;;;6.55;;
68633;SDS011;55625;47.072;22.192;2022-09-29T15:46:55;10.70;;;4.55;;
68633;SDS011;55625;47.072;22.192;2022-09-29T15:49:22;10.98;;;5.93;;
68633;SDS011;55625;47.072;22.192;2022-09-29T15:51:57;13.60;;;6.87;;
68633;SDS011;55625;47.072;22.192;2022-09-29T15:54:34;8.73;;;4.35;;
68633;SDS011;55625;47.072;22.192;2022-09-29T15:57:06;9.18;;;4.38;;
68633;SDS011;55625;47.072;22.192;2022-09-29T16:02:49;14.27;;;8.10;;
68633;SDS011;55625;47.072;22.192;2022-09-29T16:05:26;23.07;;;11.90;;
68633;SDS011;55625;47.072;22.192;2022-09-29T16:08:02;27.05;;;13.70;;
68633;SDS011;55625;47.072;22.192;2022-09-29T16:10:33;24.27;;;12.25;;
68633;SDS011;55625;47.072;22.192;2022-09-29T16:13:29;34.40;;;17.48;;
68633;SDS011;55625;47.072;22.192;2022-09-29T16:16:06;34.45;;;14.43;;
68633;SDS011;55625;47.072;22.192;2022-09-29T16:21:14;34.50;;;14.55;;
68633;SDS011;55625;47.072;22.192;2022-09-29T16:31:35;31.40;;;16.67;;
68633;SDS011;55625;47.072;22.192;2022-09-29T16:34:07;40.88;;;17.20;;
68633;SDS011;55625;47.072;22.192;2022-09-29T16:39:32;42.17;;;17.08;;
68633;SDS011;55625;47.072;22.192;2022-09-29T16:42:15;41.30;;;18.05;;
68633;SDS011;55625;47.072;22.192;2022-09-29T16:44:51;45.37;;;20.50;;
68633;SDS011;55625;47.072;22.192;2022-09-29T16:47:21;40.47;;;18.65;;
68633;SDS011;55625;47.072;22.192;2022-09-29T16:49:56;39.92;;;18.55;;
68633;SDS011;55625;47.072;22.192;2022-09-29T16:52:33;40.45;;;17.58;;
68633;SDS011;55625;47.072;22.192;2022-09-29T16:55:25;41.80;;;20.25;;
68633;SDS011;55625;47.072;22.192;2022-09-29T16:58:03;39.93;;;19.47;;
68633;SDS011;55625;47.072;22.192;2022-09-29T17:00:34;48.97;;;21.95;;
68633;SDS011;55625;47.072;22.192;2022-09-29T17:03:03;46.15;;;21.77;;
68633;SDS011;55625;47.072;22.192;2022-09-29T17:05:33;44.75;;;20.75;;
68633;SDS011;55625;47.072;22.192;2022-09-29T17:08:09;42.10;;;18.17;;
68633;SDS011;55625;47.072;22.192;2022-09-29T17:10:46;38.93;;;17.53;;
68633;SDS011;55625;47.072;22.192;2022-09-29T17:13:17;40.17;;;17.42;;
68633;SDS011;55625;47.072;22.192;2022-09-29T17:15:44;43.47;;;18.50;;
68633;SDS011;55625;47.072;22.192;2022-09-29T17:18:15;37.35;;;16.52;;
68633;SDS011;55625;47.072;22.192;2022-09-29T17:20:43;57.10;;;27.42;;
68633;SDS011;55625;47.072;22.192;2022-09-29T17:23:09;40.67;;;19.47;;
68633;SDS011;55625;47.072;22.192;2022-09-29T17:25:37;32.13;;;13.77;;
68633;SDS011;55625;47.072;22.192;2022-09-29T17:28:10;34.40;;;13.13;;
68633;SDS011;55625;47.072;22.192;2022-09-29T17:30:49;32.20;;;13.52;;
68633;SDS011;55625;47.072;22.192;2022-09-29T17:33:16;25.25;;;11.15;;
68633;SDS011;55625;47.072;22.192;2022-09-29T17:35:47;24.03;;;10.07;;
68633;SDS011;55625;47.072;22.192;2022-09-29T17:38:15;19.90;;;9.32;;
68633;SDS011;55625;47.072;22.192;2022-09-29T17:40:46;20.13;;;8.27;;
68633;SDS011;55625;47.072;22.192;2022-09-29T17:43:30;24.00;;;9.07;;
68633;SDS011;55625;47.072;22.192;2022-09-29T17:45:57;20.30;;;8.93;;
68633;SDS011;55625;47.072;22.192;2022-09-29T17:48:25;17.83;;;7.93;;
68633;SDS011;55625;47.072;22.192;2022-09-29T17:50:53;24.65;;;12.18;;
68633;SDS011;55625;47.072;22.192;2022-09-29T17:53:21;15.82;;;7.80;;
68633;SDS011;55625;47.072;22.192;2022-09-29T17:55:49;17.60;;;9.50;;
68633;SDS011;55625;47.072;22.192;2022-09-29T17:58:18;13.77;;;7.75;;
68633;SDS011;55625;47.072;22.192;2022-09-29T18:00:46;14.10;;;6.00;;
68633;SDS011;55625;47.072;22.192;2022-09-29T18:03:15;21.08;;;8.95;;
68633;SDS011;55625;47.072;22.192;2022-09-29T18:05:43;15.68;;;6.90;;
68633;SDS011;55625;47.072;22.192;2022-09-29T18:08:19;19.73;;;7.80;;
68633;SDS011;55625;47.072;22.192;2022-09-29T18:10:51;21.88;;;8.30;;
68633;SDS011;55625;47.072;22.192;2022-09-29T18:13:20;19.93;;;7.93;;
68633;SDS011;55625;47.072;22.192;2022-09-29T18:15:48;16.45;;;7.75;;
68633;SDS011;55625;47.072;22.192;2022-09-29T18:18:15;26.75;;;11.02;;
68633;SDS011;55625;47.072;22.192;2022-09-29T18:20:43;19.55;;;8.73;;
68633;SDS011;55625;47.072;22.192;2022-09-29T18:23:11;25.90;;;11.15;;
68633;SDS011;55625;47.072;22.192;2022-09-29T18:25:41;18.47;;;8.70;;
68633;SDS011;55625;47.072;22.192;2022-09-29T18:28:11;17.00;;;7.85;;
68633;SDS011;55625;47.072;22.192;2022-09-29T18:30:39;17.77;;;8.02;;
68633;SDS011;55625;47.072;22.192;2022-09-29T18:33:11;17.38;;;8.15;;
68633;SDS011;55625;47.072;22.192;2022-09-29T18:35:40;18.60;;;7.85;;
68633;SDS011;55625;47.072;22.192;2022-09-29T18:38:08;16.67;;;7.47;;
68633;SDS011;55625;47.072;22.192;2022-09-29T18:40:35;19.02;;;6.38;;
68633;SDS011;55625;47.072;22.192;2022-09-29T18:43:03;14.70;;;5.60;;
68633;SDS011;55625;47.072;22.192;2022-09-29T18:45:32;13.07;;;5.05;;
68633;SDS011;55625;47.072;22.192;2022-09-29T18:48:02;12.40;;;6.38;;
68633;SDS011;55625;47.072;22.192;2022-09-29T18:53:06;13.07;;;5.97;;
68633;SDS011;55625;47.072;22.192;2022-09-29T18:55:37;16.20;;;6.03;;